sensor_id;sensor_type;location;lat;lon;timestamp;pressure;altitude;pressure_sealevel;temperature;humidity
5595;BME280;1003;48.002;7.788;2023-01-31T00:01:28;100454.09;;;0.32;100.00
5595;BME280;1003;48.002;7.788;2023-01-31T00:03:59;100453.88;;;0.27;100.00
5595;BME280;1003;48.002;7.788;2023-01-31T00:06:29;100466.84;;;0.23;100.00
5595;BME280;1003;48.002;7.788;2023-01-31T00:08:58;100486.63;;;0.23;100.00
5595;BME280;1003;48.002;7.788;2023-01-31T00:11:28;100484.25;;;0.10;100.00
5595;BME280;1003;48.002;7.788;2023-01-31T00:13:59;100476.03;;;-0.06;100.00
5595;BME280;1003;48.002;7.788;2023-01-31T00:16:26;100467.97;;;-0.18;100.00
5595;BME280;1003;48.002;7.788;2023-01-31T00:18:54;100473.19;;;-0.28;100.00
5595;BME280;1003;48.002;7.788;2023-01-31T00:21:23;100485.28;;;-0.18;100.00
5595;BME280;1003;48.002;7.788;2023-01-31T00:23:53;100489.09;;;-0.23;100.00
5595;BME280;1003;48.002;7.788;2023-01-31T00:26:23;100479.69;;;-0.30;100.00
5595;BME280;1003;48.002;7.788;2023-01-31T00:28:53;100483.50;;;-0.35;100.00
5595;BME280;1003;48.002;7.788;2023-01-31T00:31:24;100484.56;;;-0.46;100.00
5595;BME280;1003;48.002;7.788;2023-01-31T00:33:53;100476.38;;;-0.60;100.00
5595;BME280;1003;48.002;7.788;2023-01-31T00:36:25;100470.94;;;-0.84;100.00
5595;BME280;1003;48.002;7.788;2023-01-31T00:38:54;100468.19;;;-1.03;100.00
5595;BME280;1003;48.002;7.788;2023-01-31T00:41:24;100465.59;;;-1.20;100.00
5595;BME280;1003;48.002;7.788;2023-01-31T00:43:51;100465.25;;;-1.26;100.00
5595;BME280;1003;48.002;7.788;2023-01-31T00:46:20;100476.53;;;-1.29;100.00
5595;BME280;1003;48.002;7.788;2023-01-31T00:48:48;100472.59;;;-1.41;100.00
5595;BME280;1003;48.002;7.788;2023-01-31T00:51:16;100476.25;;;-1.49;100.00
5595;BME280;1003;48.002;7.788;2023-01-31T00:53:44;100471.63;;;-1.58;100.00
5595;BME280;1003;48.002;7.788;2023-01-31T00:56:14;100488.84;;;-1.44;100.00
5595;BME280;1003;48.002;7.788;2023-01-31T00:58:42;100477.03;;;-1.63;100.00
5595;BME280;1003;48.002;7.788;2023-01-31T01:01:13;100478.09;;;-1.73;100.00
5595;BME280;1003;48.002;7.788;2023-01-31T01:03:43;100487.03;;;-1.75;100.00
5595;BME280;1003;48.002;7.788;2023-01-31T01:06:11;100490.75;;;-1.81;100.00
5595;BME280;1003;48.002;7.788;2023-01-31T01:08:40;100486.31;;;-1.87;100.00
5595;BME280;1003;48.002;7.788;2023-01-31T01:11:10;100486.03;;;-1.92;100.00
5595;BME280;1003;48.002;7.788;2023-01-31T01:13:39;100504.59;;;-1.97;100.00
5595;BME280;1003;48.002;7.788;2023-01-31T01:16:09;100490.09;;;-2.05;100.00
5595;BME280;1003;48.002;7.788;2023-01-31T01:18:36;100502.88;;;-2.11;100.00
5595;BME280;1003;48.002;7.788;2023-01-31T01:21:08;100503.66;;;-2.12;100.00
5595;BME280;1003;48.002;7.788;2023-01-31T01:23:36;100507.53;;;-2.16;100.00
5595;BME280;1003;48.002;7.788;2023-01-31T01:26:04;100514.81;;;-2.17;100.00
5595;BME280;1003;48.002;7.788;2023-01-31T01:28:33;100514.38;;;-2.25;100.00
5595;BME280;1003;48.002;7.788;2023-01-31T01:31:05;100531.78;;;-2.22;100.00
5595;BME280;1003;48.002;7.788;2023-01-31T01:33:32;100540.00;;;-2.21;100.00
5595;BME280;1003;48.002;7.788;2023-01-31T01:36:00;100539.94;;;-2.23;100.00
5595;BME280;1003;48.002;7.788;2023-01-31T01:38:29;100536.16;;;-2.31;100.00
5595;BME280;1003;48.002;7.788;2023-01-31T01:40:56;100542.56;;;-2.33;100.00
5595;BME280;1003;48.002;7.788;2023-01-31T01:43:39;100564.00;;;-2.05;100.00
5595;BME280;1003;48.002;7.788;2023-01-31T01:46:11;100564.84;;;-1.92;100.00
5595;BME280;1003;48.002;7.788;2023-01-31T01:48:41;100579.94;;;-1.87;100.00
5595;BME280;1003;48.002;7.788;2023-01-31T01:51:09;100599.84;;;-1.71;100.00
5595;BME280;1003;48.002;7.788;2023-01-31T01:53:40;100605.97;;;-1.64;100.00
5595;BME280;1003;48.002;7.788;2023-01-31T01:56:16;100623.91;;;-1.67;100.00
5595;BME280;1003;48.002;7.788;2023-01-31T01:58:52;100628.75;;;-1.81;100.00
5595;BME280;1003;48.002;7.788;2023-01-31T02:01:23;100657.63;;;-1.92;100.00
5595;BME280;1003;48.002;7.788;2023-01-31T02:03:52;100671.44;;;-1.94;100.00
5595;BME280;1003;48.002;7.788;2023-01-31T02:06:20;100698.38;;;-1.84;100.00
5595;BME280;1003;48.002;7.788;2023-01-31T02:08:49;100726.75;;;-1.77;100.00
5595;BME280;1003;48.002;7.788;2023-01-31T02:11:21;100738.25;;;-1.90;100.00
5595;BME280;1003;48.002;7.788;2023-01-31T02:13:53;100746.03;;;-1.97;100.00
5595;BME280;1003;48.002;7.788;2023-01-31T02:16:22;100747.25;;;-2.03;100.00
5595;BME280;1003;48.002;7.788;2023-01-31T02:18:49;100751.09;;;-2.07;100.00
5595;BME280;1003;48.002;7.788;2023-01-31T02:21:58;100768.09;;;-1.98;100.00
5595;BME280;1003;48.002;7.788;2023-01-31T02:25:07;100774.66;;;-1.99;100.00
5595;BME280;1003;48.002;7.788;2023-01-31T02:31:51;100773.25;;;-2.32;100.00
5595;BME280;1003;48.002;7.788;2023-01-31T02:34:34;100771.94;;;-2.52;100.00
5595;BME280;1003;48.002;7.788;2023-01-31T02:37:17;100793.97;;;-2.53;100.00
5595;BME280;1003;48.002;7.788;2023-01-31T02:40:04;100797.28;;;-2.65;100.00
5595;BME280;1003;48.002;7.788;2023-01-31T02:42:43;100807.56;;;-2.70;100.00
5595;BME280;1003;48.002;7.788;2023-01-31T02:45:21;100829.94;;;-2.67;100.00
5595;BME280;1003;48.002;7.788;2023-01-31T02:48:04;100838.50;;;-2.74;100.00
5595;BME280;1003;48.002;7.788;2023-01-31T02:50:43;100863.97;;;-2.73;100.00
5595;BME280;1003;48.002;7.788;2023-01-31T02:53:19;100886.09;;;-2.50;100.00
5595;BME280;1003;48.002;7.788;2023-01-31T02:55:55;100900.88;;;-2.50;100.00
5595;BME280;1003;48.002;7.788;2023-01-31T02:58:49;100923.03;;;-2.50;100.00
5595;BME280;1003;48.002;7.788;2023-01-31T03:01:23;100942.31;;;-2.56;100.00
5595;BME280;1003;48.002;7.788;2023-01-31T03:03:57;100959.09;;;-2.74;100.00
5595;BME280;1003;48.002;7.788;2023-01-31T03:06:54;100951.13;;;-2.93;100.00
5595;BME280;1003;48.002;7.788;2023-01-31T03:09:36;100976.88;;;-3.00;100.00
5595;BME280;1003;48.002;7.788;2023-01-31T03:12:25;101010.22;;;-3.03;100.00
5595;BME280;1003;48.002;7.788;2023-01-31T03:15:10;101015.97;;;-3.14;100.00
5595;BME280;1003;48.002;7.788;2023-01-31T03:17:56;101029.19;;;-3.24;100.00
5595;BME280;1003;48.002;7.788;2023-01-31T03:20:29;101046.56;;;-3.11;100.00
5595;BME280;1003;48.002;7.788;2023-01-31T03:23:08;101083.56;;;-3.09;100.00
5595;BME280;1003;48.002;7.788;2023-01-31T03:25:37;101082.41;;;-3.25;100.00
5595;BME280;1003;48.002;7.788;2023-01-31T03:28:09;101087.63;;;-3.32;100.00
5595;BME280;1003;48.002;7.788;2023-01-31T03:30:44;101094.63;;;-3.36;100.00
5595;BME280;1003;48.002;7.788;2023-01-31T04:03:15;101246.44;;;-2.59;100.00
5595;BME280;1003;48.002;7.788;2023-01-31T04:05:43;101256.69;;;-2.43;100.00
5595;BME280;1003;48.002;7.788;2023-01-31T04:08:11;101271.06;;;-2.38;100.00
5595;BME280;1003;48.002;7.788;2023-01-31T04:10:39;101271.91;;;-2.37;100.00
5595;BME280;1003;48.002;7.788;2023-01-31T04:13:06;101296.38;;;-2.28;100.00
5595;BME280;1003;48.002;7.788;2023-01-31T04:15:33;101289.09;;;-2.49;100.00
5595;BME280;1003;48.002;7.788;2023-01-31T04:18:00;101310.31;;;-2.61;100.00
5595;BME280;1003;48.002;7.788;2023-01-31T04:20:28;101323.53;;;-2.81;100.00
5595;BME280;1003;48.002;7.788;2023-01-31T04:22:55;101336.25;;;-2.97;100.00
5595;BME280;1003;48.002;7.788;2023-01-31T04:25:24;101354.09;;;-3.09;100.00
5595;BME280;1003;48.002;7.788;2023-01-31T04:27:51;101374.38;;;-3.02;100.00
5595;BME280;1003;48.002;7.788;2023-01-31T04:30:18;101386.56;;;-3.13;100.00
5595;BME280;1003;48.002;7.788;2023-01-31T04:32:45;101391.84;;;-3.39;100.00
5595;BME280;1003;48.002;7.788;2023-01-31T04:35:12;101400.81;;;-3.50;100.00
5595;BME280;1003;48.002;7.788;2023-01-31T04:37:41;101416.44;;;-3.50;100.00
5595;BME280;1003;48.002;7.788;2023-01-31T04:40:10;101451.22;;;-3.35;100.00
5595;BME280;1003;48.002;7.788;2023-01-31T04:42:38;101486.88;;;-3.30;100.00
5595;BME280;1003;48.002;7.788;2023-01-31T04:45:07;101502.47;;;-3.50;100.00
5595;BME280;1003;48.002;7.788;2023-01-31T04:47:34;101528.06;;;-3.66;100.00
5595;BME280;1003;48.002;7.788;2023-01-31T04:50:01;101576.81;;;-3.52;100.00
5595;BME280;1003;48.002;7.788;2023-01-31T04:52:28;101615.09;;;-3.35;100.00
5595;BME280;1003;48.002;7.788;2023-01-31T04:54:57;101625.56;;;-3.57;100.00
5595;BME280;1003;48.002;7.788;2023-01-31T04:57:24;101640.59;;;-3.73;100.00
5595;BME280;1003;48.002;7.788;2023-01-31T04:59:51;101664.19;;;-3.75;100.00
5595;BME280;1003;48.002;7.788;2023-01-31T05:02:18;101691.19;;;-3.56;100.00
5595;BME280;1003;48.002;7.788;2023-01-31T05:04:45;101713.81;;;-3.60;100.00
5595;BME280;1003;48.002;7.788;2023-01-31T05:07:12;101743.00;;;-3.63;100.00
5595;BME280;1003;48.002;7.788;2023-01-31T05:09:39;101774.97;;;-3.63;100.00
5595;BME280;1003;48.002;7.788;2023-01-31T05:12:08;101804.41;;;-3.54;100.00
5595;BME280;1003;48.002;7.788;2023-01-31T05:14:35;101849.22;;;-3.48;100.00
5595;BME280;1003;48.002;7.788;2023-01-31T05:17:02;101872.31;;;-3.46;100.00
5595;BME280;1003;48.002;7.788;2023-01-31T05:19:29;101898.56;;;-3.28;100.00
5595;BME280;1003;48.002;7.788;2023-01-31T05:21:56;101911.81;;;-3.17;100.00
5595;BME280;1003;48.002;7.788;2023-01-31T05:24:27;101944.47;;;-3.09;100.00
5595;BME280;1003;48.002;7.788;2023-01-31T05:26:55;101979.41;;;-2.95;100.00
5595;BME280;1003;48.002;7.788;2023-01-31T05:29:25;101998.16;;;-2.86;100.00
5595;BME280;1003;48.002;7.788;2023-01-31T05:31:53;102035.13;;;-2.68;100.00
5595;BME280;1003;48.002;7.788;2023-01-31T05:34:22;102035.47;;;-2.73;100.00
5595;BME280;1003;48.002;7.788;2023-01-31T05:36:50;102039.91;;;-2.69;100.00
5595;BME280;1003;48.002;7.788;2023-01-31T05:39:17;102066.41;;;-2.67;100.00
5595;BME280;1003;48.002;7.788;2023-01-31T05:41:44;102079.78;;;-2.73;100.00
5595;BME280;1003;48.002;7.788;2023-01-31T05:44:11;102085.00;;;-2.79;100.00
5595;BME280;1003;48.002;7.788;2023-01-31T05:46:40;102092.22;;;-2.80;100.00
5595;BME280;1003;48.002;7.788;2023-01-31T05:49:07;102113.63;;;-2.71;100.00
5595;BME280;1003;48.002;7.788;2023-01-31T05:51:34;102125.63;;;-2.65;100.00
5595;BME280;1003;48.002;7.788;2023-01-31T05:54:02;102143.59;;;-2.75;100.00
5595;BME280;1003;48.002;7.788;2023-01-31T05:56:29;102162.16;;;-2.78;100.00
5595;BME280;1003;48.002;7.788;2023-01-31T05:58:56;102169.44;;;-2.97;100.00
5595;BME280;1003;48.002;7.788;2023-01-31T06:01:25;102174.97;;;-3.08;100.00
5595;BME280;1003;48.002;7.788;2023-01-31T06:03:54;102169.91;;;-3.19;100.00
5595;BME280;1003;48.002;7.788;2023-01-31T06:06:21;102169.09;;;-3.36;100.00
5595;BME280;1003;48.002;7.788;2023-01-31T06:08:48;102174.72;;;-3.46;100.00
5595;BME280;1003;48.002;7.788;2023-01-31T06:11:15;102201.91;;;-3.45;100.00
5595;BME280;1003;48.002;7.788;2023-01-31T06:13:43;102230.41;;;-3.29;100.00
5595;BME280;1003;48.002;7.788;2023-01-31T06:16:11;102251.69;;;-3.21;100.00
5595;BME280;1003;48.002;7.788;2023-01-31T06:18:38;102254.28;;;-3.37;100.00
5595;BME280;1003;48.002;7.788;2023-01-31T06:21:07;102249.91;;;-3.57;100.00
5595;BME280;1003;48.002;7.788;2023-01-31T06:23:34;102252.22;;;-3.67;100.00
5595;BME280;1003;48.002;7.788;2023-01-31T06:26:01;102266.81;;;-3.68;100.00
5595;BME280;1003;48.002;7.788;2023-01-31T06:28:28;102266.94;;;-3.84;100.00
5595;BME280;1003;48.002;7.788;2023-01-31T06:30:55;102254.59;;;-4.02;100.00
5595;BME280;1003;48.002;7.788;2023-01-31T06:33:22;102251.22;;;-4.11;100.00
5595;BME280;1003;48.002;7.788;2023-01-31T06:35:49;102253.91;;;-4.25;100.00
5595;BME280;1003;48.002;7.788;2023-01-31T06:38:17;102255.06;;;-4.30;100.00
5595;BME280;1003;48.002;7.788;2023-01-31T06:40:44;102257.66;;;-4.29;100.00
5595;BME280;1003;48.002;7.788;2023-01-31T06:43:11;102282.63;;;-4.00;100.00
5595;BME280;1003;48.002;7.788;2023-01-31T06:45:38;102289.00;;;-4.02;100.00
5595;BME280;1003;48.002;7.788;2023-01-31T06:48:08;102266.75;;;-3.94;100.00
5595;BME280;1003;48.002;7.788;2023-01-31T06:50:35;102276.28;;;-3.98;100.00
5595;BME280;1003;48.002;7.788;2023-01-31T06:53:02;102286.72;;;-3.91;100.00
5595;BME280;1003;48.002;7.788;2023-01-31T06:55:30;102294.44;;;-4.04;100.00
5595;BME280;1003;48.002;7.788;2023-01-31T06:57:57;102295.59;;;-4.09;100.00
5595;BME280;1003;48.002;7.788;2023-01-31T07:00:25;102303.84;;;-4.09;100.00
5595;BME280;1003;48.002;7.788;2023-01-31T07:02:52;102301.41;;;-4.09;100.00
5595;BME280;1003;48.002;7.788;2023-01-31T07:05:20;102320.81;;;-3.94;100.00
5595;BME280;1003;48.002;7.788;2023-01-31T07:07:47;102331.94;;;-3.89;100.00
5595;BME280;1003;48.002;7.788;2023-01-31T07:10:16;102352.66;;;-3.79;100.00
5595;BME280;1003;48.002;7.788;2023-01-31T07:12:44;102373.38;;;-3.68;100.00
5595;BME280;1003;48.002;7.788;2023-01-31T07:15:12;102370.31;;;-3.74;100.00
5595;BME280;1003;48.002;7.788;2023-01-31T07:17:40;102383.03;;;-3.78;100.00
5595;BME280;1003;48.002;7.788;2023-01-31T07:20:10;102387.94;;;-3.78;100.00
5595;BME280;1003;48.002;7.788;2023-01-31T07:22:37;102395.31;;;-3.78;100.00
5595;BME280;1003;48.002;7.788;2023-01-31T07:25:05;102415.44;;;-3.74;100.00
5595;BME280;1003;48.002;7.788;2023-01-31T07:27:33;102425.44;;;-3.63;100.00
5595;BME280;1003;48.002;7.788;2023-01-31T07:30:01;102430.50;;;-3.62;100.00
5595;BME280;1003;48.002;7.788;2023-01-31T07:32:29;102447.91;;;-3.52;100.00
5595;BME280;1003;48.002;7.788;2023-01-31T07:34:56;102470.97;;;-3.42;100.00
5595;BME280;1003;48.002;7.788;2023-01-31T07:37:23;102496.09;;;-3.21;100.00
5595;BME280;1003;48.002;7.788;2023-01-31T07:39:50;102512.97;;;-3.24;100.00
5595;BME280;1003;48.002;7.788;2023-01-31T07:42:17;102507.84;;;-3.42;100.00
5595;BME280;1003;48.002;7.788;2023-01-31T07:44:44;102550.47;;;-3.26;100.00
5595;BME280;1003;48.002;7.788;2023-01-31T07:47:12;102562.91;;;-3.25;100.00
5595;BME280;1003;48.002;7.788;2023-01-31T07:49:40;102578.59;;;-3.15;100.00
5595;BME280;1003;48.002;7.788;2023-01-31T07:52:07;102592.22;;;-3.10;100.00
5595;BME280;1003;48.002;7.788;2023-01-31T07:54:34;102599.88;;;-3.07;100.00
5595;BME280;1003;48.002;7.788;2023-01-31T07:57:01;102621.22;;;-2.99;100.00
5595;BME280;1003;48.002;7.788;2023-01-31T07:59:28;102644.06;;;-2.76;100.00
5595;BME280;1003;48.002;7.788;2023-01-31T08:01:55;102663.66;;;-2.69;100.00
5595;BME280;1003;48.002;7.788;2023-01-31T08:04:55;102676.72;;;-2.61;100.00
5595;BME280;1003;48.002;7.788;2023-01-31T08:07:22;102713.72;;;-2.44;100.00
5595;BME280;1003;48.002;7.788;2023-01-31T08:09:49;102757.44;;;-2.25;100.00
5595;BME280;1003;48.002;7.788;2023-01-31T08:12:16;102778.97;;;-2.07;100.00
5595;BME280;1003;48.002;7.788;2023-01-31T08:14:43;102812.22;;;-1.95;100.00
5595;BME280;1003;48.002;7.788;2023-01-31T08:17:10;102837.63;;;-1.87;100.00
5595;BME280;1003;48.002;7.788;2023-01-31T08:19:37;102863.44;;;-1.83;100.00
5595;BME280;1003;48.002;7.788;2023-01-31T08:22:06;102883.69;;;-1.70;100.00
5595;BME280;1003;48.002;7.788;2023-01-31T08:24:33;102904.31;;;-1.61;100.00
5595;BME280;1003;48.002;7.788;2023-01-31T08:27:00;102943.41;;;-1.48;100.00
5595;BME280;1003;48.002;7.788;2023-01-31T08:29:27;102957.53;;;-1.39;100.00
5595;BME280;1003;48.002;7.788;2023-01-31T08:31:54;102974.53;;;-1.33;100.00
5595;BME280;1003;48.002;7.788;2023-01-31T08:34:21;103009.00;;;-1.17;100.00
5595;BME280;1003;48.002;7.788;2023-01-31T08:36:48;103045.97;;;-1.01;100.00
5595;BME280;1003;48.002;7.788;2023-01-31T08:39:17;103093.34;;;-0.88;100.00
5595;BME280;1003;48.002;7.788;2023-01-31T08:41:44;103128.19;;;-0.69;100.00
5595;BME280;1003;48.002;7.788;2023-01-31T08:44:11;103166.03;;;-0.53;100.00
5595;BME280;1003;48.002;7.788;2023-01-31T08:46:38;103195.13;;;-0.42;100.00
5595;BME280;1003;48.002;7.788;2023-01-31T08:49:06;103240.25;;;-0.27;100.00
5595;BME280;1003;48.002;7.788;2023-01-31T08:51:34;103268.81;;;-0.13;100.00
5595;BME280;1003;48.002;7.788;2023-01-31T08:54:02;103306.13;;;-0.03;100.00
5595;BME280;1003;48.002;7.788;2023-01-31T08:56:30;103339.22;;;0.15;100.00
5595;BME280;1003;48.002;7.788;2023-01-31T08:58:57;103364.88;;;0.24;100.00
5595;BME280;1003;48.002;7.788;2023-01-31T09:01:24;103393.47;;;0.38;100.00
5595;BME280;1003;48.002;7.788;2023-01-31T09:03:51;103424.19;;;0.48;100.00
5595;BME280;1003;48.002;7.788;2023-01-31T09:06:24;103455.69;;;0.58;100.00
5595;BME280;1003;48.002;7.788;2023-01-31T09:08:53;103486.31;;;0.67;100.00
5595;BME280;1003;48.002;7.788;2023-01-31T09:11:20;103507.94;;;0.77;100.00
5595;BME280;1003;48.002;7.788;2023-01-31T09:13:49;103550.38;;;0.89;100.00
5595;BME280;1003;48.002;7.788;2023-01-31T09:16:17;103567.03;;;0.98;100.00
5595;BME280;1003;48.002;7.788;2023-01-31T09:18:44;103602.53;;;1.15;100.00
5595;BME280;1003;48.002;7.788;2023-01-31T09:21:13;103650.25;;;1.29;100.00
5595;BME280;1003;48.002;7.788;2023-01-31T09:23:41;103676.69;;;1.38;100.00
5595;BME280;1003;48.002;7.788;2023-01-31T09:26:09;103711.63;;;1.56;100.00
5595;BME280;1003;48.002;7.788;2023-01-31T09:28:37;103751.53;;;1.75;100.00
5595;BME280;1003;48.002;7.788;2023-01-31T09:31:10;103780.91;;;1.88;100.00
5595;BME280;1003;48.002;7.788;2023-01-31T09:33:38;103805.22;;;1.99;100.00
5595;BME280;1003;48.002;7.788;2023-01-31T09:36:08;103827.41;;;2.06;100.00
5595;BME280;1003;48.002;7.788;2023-01-31T09:38:36;103839.97;;;2.08;100.00
5595;BME280;1003;48.002;7.788;2023-01-31T09:41:08;103865.50;;;2.31;100.00
5595;BME280;1003;48.002;7.788;2023-01-31T09:43:44;103869.13;;;2.35;100.00
5595;BME280;1003;48.002;7.788;2023-01-31T09:46:20;103879.28;;;2.54;100.00
5595;BME280;1003;48.002;7.788;2023-01-31T09:48:54;103853.13;;;2.57;100.00
5595;BME280;1003;48.002;7.788;2023-01-31T09:51:23;103819.09;;;2.74;100.00
5595;BME280;1003;48.002;7.788;2023-01-31T09:53:50;103736.81;;;2.71;100.00
5595;BME280;1003;48.002;7.788;2023-01-31T09:56:31;103601.84;;;2.89;100.00
5595;BME280;1003;48.002;7.788;2023-01-31T09:59:13;103428.78;;;3.27;100.00
5595;BME280;1003;48.002;7.788;2023-01-31T10:01:54;103046.75;;;3.38;100.00
5595;BME280;1003;48.002;7.788;2023-01-31T10:04:45;102507.63;;;3.56;100.00
5595;BME280;1003;48.002;7.788;2023-01-31T10:07:26;102239.47;;;3.75;100.00
5595;BME280;1003;48.002;7.788;2023-01-31T10:10:02;102035.19;;;3.71;100.00
5595;BME280;1003;48.002;7.788;2023-01-31T10:12:37;101967.75;;;3.79;100.00
5595;BME280;1003;48.002;7.788;2023-01-31T10:15:15;101925.81;;;3.85;100.00
5595;BME280;1003;48.002;7.788;2023-01-31T10:17:48;101896.13;;;4.02;100.00
5595;BME280;1003;48.002;7.788;2023-01-31T10:20:21;101874.47;;;4.42;100.00
5595;BME280;1003;48.002;7.788;2023-01-31T10:22:56;101832.13;;;4.57;100.00
5595;BME280;1003;48.002;7.788;2023-01-31T10:25:32;101786.50;;;4.72;100.00
5595;BME280;1003;48.002;7.788;2023-01-31T10:28:05;101758.03;;;4.98;100.00
5595;BME280;1003;48.002;7.788;2023-01-31T10:30:43;101718.47;;;5.36;100.00
5595;BME280;1003;48.002;7.788;2023-01-31T10:33:26;101644.91;;;5.28;100.00
5595;BME280;1003;48.002;7.788;2023-01-31T10:35:56;101560.81;;;5.25;100.00
5595;BME280;1003;48.002;7.788;2023-01-31T10:38:30;101452.34;;;5.33;100.00
5595;BME280;1003;48.002;7.788;2023-01-31T10:41:13;101329.84;;;5.27;100.00
5595;BME280;1003;48.002;7.788;2023-01-31T10:43:51;101215.22;;;5.09;100.00
5595;BME280;1003;48.002;7.788;2023-01-31T10:46:23;101111.25;;;5.26;100.00
5595;BME280;1003;48.002;7.788;2023-01-31T10:48:51;100983.25;;;5.25;100.00
5595;BME280;1003;48.002;7.788;2023-01-31T10:51:37;100865.84;;;5.40;100.00
5595;BME280;1003;48.002;7.788;2023-01-31T10:54:25;100768.19;;;5.30;100.00
5595;BME280;1003;48.002;7.788;2023-01-31T10:56:57;100680.34;;;5.13;100.00
5595;BME280;1003;48.002;7.788;2023-01-31T10:59:29;100608.03;;;4.65;100.00
5595;BME280;1003;48.002;7.788;2023-01-31T11:01:57;100567.38;;;4.66;100.00
5595;BME280;1003;48.002;7.788;2023-01-31T11:04:30;100551.84;;;4.95;100.00
5595;BME280;1003;48.002;7.788;2023-01-31T11:07:00;100547.59;;;5.17;100.00
5595;BME280;1003;48.002;7.788;2023-01-31T11:09:32;100555.03;;;5.41;100.00
5595;BME280;1003;48.002;7.788;2023-01-31T11:12:03;100560.47;;;5.55;100.00
5595;BME280;1003;48.002;7.788;2023-01-31T11:14:30;100577.69;;;5.48;100.00
5595;BME280;1003;48.002;7.788;2023-01-31T11:17:02;100615.06;;;5.72;100.00
5595;BME280;1003;48.002;7.788;2023-01-31T11:19:39;100628.75;;;5.84;100.00
5595;BME280;1003;48.002;7.788;2023-01-31T11:22:08;100616.91;;;5.78;100.00
5595;BME280;1003;48.002;7.788;2023-01-31T11:24:47;100611.28;;;6.09;100.00
5595;BME280;1003;48.002;7.788;2023-01-31T11:27:28;100587.50;;;6.20;100.00
5595;BME280;1003;48.002;7.788;2023-01-31T11:29:59;100557.22;;;6.38;100.00
5595;BME280;1003;48.002;7.788;2023-01-31T11:32:29;100518.66;;;6.57;100.00
5595;BME280;1003;48.002;7.788;2023-01-31T11:35:03;100474.44;;;6.86;100.00
5595;BME280;1003;48.002;7.788;2023-01-31T11:37:33;100438.47;;;6.81;100.00
5595;BME280;1003;48.002;7.788;2023-01-31T11:40:02;100413.44;;;6.46;100.00
5595;BME280;1003;48.002;7.788;2023-01-31T11:42:50;100364.63;;;6.57;100.00
5595;BME280;1003;48.002;7.788;2023-01-31T11:45:20;100331.09;;;6.49;100.00
5595;BME280;1003;48.002;7.788;2023-01-31T11:47:51;100318.84;;;6.58;100.00
5595;BME280;1003;48.002;7.788;2023-01-31T11:50:23;100294.63;;;6.56;100.00
5595;BME280;1003;48.002;7.788;2023-01-31T11:52:57;100280.66;;;6.63;100.00
5595;BME280;1003;48.002;7.788;2023-01-31T11:55:26;100262.16;;;6.92;100.00
5595;BME280;1003;48.002;7.788;2023-01-31T11:57:57;100239.75;;;6.95;100.00
5595;BME280;1003;48.002;7.788;2023-01-31T12:00:29;100238.22;;;7.02;100.00
5595;BME280;1003;48.002;7.788;2023-01-31T12:03:01;100223.72;;;6.87;100.00
5595;BME280;1003;48.002;7.788;2023-01-31T12:05:37;100211.78;;;7.13;100.00
5595;BME280;1003;48.002;7.788;2023-01-31T12:08:24;100206.47;;;7.39;100.00
5595;BME280;1003;48.002;7.788;2023-01-31T12:10:54;100190.16;;;7.59;100.00
5595;BME280;1003;48.002;7.788;2023-01-31T12:13:22;100171.13;;;7.67;100.00
5595;BME280;1003;48.002;7.788;2023-01-31T12:15:55;100169.47;;;7.69;100.00
5595;BME280;1003;48.002;7.788;2023-01-31T12:18:49;100156.28;;;7.78;100.00
5595;BME280;1003;48.002;7.788;2023-01-31T12:21:37;100144.19;;;8.02;100.00
5595;BME280;1003;48.002;7.788;2023-01-31T12:24:22;100130.75;;;7.97;100.00
5595;BME280;1003;48.002;7.788;2023-01-31T12:26:55;100132.50;;;8.03;100.00
5595;BME280;1003;48.002;7.788;2023-01-31T12:30:13;100126.00;;;7.64;100.00
5595;BME280;1003;48.002;7.788;2023-01-31T12:33:00;100124.03;;;7.45;100.00
5595;BME280;1003;48.002;7.788;2023-01-31T12:35:56;100128.13;;;7.41;100.00
5595;BME280;1003;48.002;7.788;2023-01-31T12:38:52;100132.44;;;7.48;100.00
5595;BME280;1003;48.002;7.788;2023-01-31T12:41:31;100132.25;;;7.39;100.00
5595;BME280;1003;48.002;7.788;2023-01-31T12:44:37;100136.09;;;7.67;100.00
5595;BME280;1003;48.002;7.788;2023-01-31T12:47:29;100134.66;;;7.81;100.00
5595;BME280;1003;48.002;7.788;2023-01-31T12:50:25;100142.81;;;8.23;100.00
5595;BME280;1003;48.002;7.788;2023-01-31T12:53:22;100124.50;;;8.27;100.00
5595;BME280;1003;48.002;7.788;2023-01-31T12:56:16;100116.16;;;8.28;100.00
5595;BME280;1003;48.002;7.788;2023-01-31T12:58:57;100119.16;;;8.04;100.00
5595;BME280;1003;48.002;7.788;2023-01-31T13:01:35;100104.06;;;7.98;100.00
5595;BME280;1003;48.002;7.788;2023-01-31T13:04:28;100097.16;;;7.84;100.00
5595;BME280;1003;48.002;7.788;2023-01-31T13:06:59;100073.47;;;7.64;100.00
5595;BME280;1003;48.002;7.788;2023-01-31T13:09:32;100080.25;;;7.70;100.00
5595;BME280;1003;48.002;7.788;2023-01-31T13:12:06;100082.59;;;7.59;100.00
5595;BME280;1003;48.002;7.788;2023-01-31T13:14:40;100066.13;;;7.73;100.00
5595;BME280;1003;48.002;7.788;2023-01-31T13:17:12;100073.34;;;7.55;100.00
5595;BME280;1003;48.002;7.788;2023-01-31T13:19:47;100078.00;;;7.35;100.00
5595;BME280;1003;48.002;7.788;2023-01-31T13:22:20;100093.84;;;7.35;100.00
5595;BME280;1003;48.002;7.788;2023-01-31T13:24:58;100076.41;;;7.40;100.00
5595;BME280;1003;48.002;7.788;2023-01-31T13:27:33;100063.72;;;7.28;100.00
5595;BME280;1003;48.002;7.788;2023-01-31T13:30:15;100062.06;;;7.30;100.00
5595;BME280;1003;48.002;7.788;2023-01-31T13:32:47;100064.84;;;7.47;100.00
5595;BME280;1003;48.002;7.788;2023-01-31T13:35:22;100059.00;;;7.46;100.00
5595;BME280;1003;48.002;7.788;2023-01-31T13:37:58;100053.00;;;7.35;100.00
5595;BME280;1003;48.002;7.788;2023-01-31T13:40:30;100051.47;;;7.43;100.00
5595;BME280;1003;48.002;7.788;2023-01-31T13:43:09;100052.69;;;7.68;100.00
5595;BME280;1003;48.002;7.788;2023-01-31T13:45:43;100044.38;;;7.69;100.00
5595;BME280;1003;48.002;7.788;2023-01-31T13:48:24;100034.19;;;7.58;100.00
5595;BME280;1003;48.002;7.788;2023-01-31T13:50:59;100035.94;;;7.62;100.00
5595;BME280;1003;48.002;7.788;2023-01-31T13:53:32;100016.78;;;7.65;100.00
5595;BME280;1003;48.002;7.788;2023-01-31T13:56:03;100013.31;;;7.55;100.00
5595;BME280;1003;48.002;7.788;2023-01-31T13:58:36;100003.16;;;7.46;100.00
5595;BME280;1003;48.002;7.788;2023-01-31T14:01:06;99997.63;;;7.67;100.00
5595;BME280;1003;48.002;7.788;2023-01-31T14:07:22;99979.97;;;7.57;100.00
5595;BME280;1003;48.002;7.788;2023-01-31T14:10:25;99977.84;;;7.83;100.00